Time;durP1;ratioP1;P1;durP2;ratioP2;P2;SDS_P1;SDS_P2;PMS_P1;PMS_P2;Temp;Humidity;BMP_temperature;BMP_pressure;BME280_temperature;BME280_humidity;BME280_pressure;Samples;Min_cycle;Max_cycle;Signal;HPM_P1;HPM_P2
2021/08/16 00:00:04;;;;;;;7.50;6.90;;;34.20;56.20;;;;;;5043087;28;20503;-44
2021/08/16 00:02:35;;;;;;;7.00;6.60;;;34.30;55.70;;;;;;5040714;28;20472;-39
2021/08/16 00:05:08;;;;;;;7.97;7.37;;;34.20;55.30;;;;;;5047874;28;20456;-45
2021/08/16 00:07:39;;;;;;;8.20;7.60;;;34.20;55.10;;;;;;5042184;28;20527;-41
2021/08/16 00:10:11;;;;;;;8.53;7.40;;;34.10;55.30;;;;;;5053763;28;20489;-44
2021/08/16 00:12:44;;;;;;;8.50;7.90;;;34.00;55.40;;;;;;5065656;27;20442;-42
2021/08/16 00:15:15;;;;;;;7.40;6.90;;;33.90;56.60;;;;;;5036193;28;20446;-42
2021/08/16 00:17:47;;;;;;;7.40;6.90;;;33.80;55.70;;;;;;5033031;28;20457;-45
2021/08/16 00:20:18;;;;;;;8.37;7.60;;;33.60;55.80;;;;;;5068818;27;20492;-45
2021/08/16 00:22:49;;;;;;;8.50;7.90;;;33.60;57.50;;;;;;5039059;28;20509;-41
2021/08/16 00:25:20;;;;;;;8.40;7.90;;;33.50;57.50;;;;;;5040599;28;20902;-43
2021/08/16 00:27:53;;;;;;;8.43;7.83;;;33.40;58.00;;;;;;5039652;28;20506;-39
2021/08/16 00:30:25;;;;;;;8.83;8.13;;;33.30;58.80;;;;;;5050530;28;20491;-39
2021/08/16 00:32:56;;;;;;;9.40;8.70;;;33.30;59.80;;;;;;5048380;28;20508;-46
2021/08/16 00:35:27;;;;;;;11.30;10.20;;;33.30;60.80;;;;;;5049572;28;20455;-39
2021/08/16 00:37:58;;;;;;;11.00;10.20;;;33.30;60.20;;;;;;5053429;28;20488;-40
2021/08/16 00:40:29;;;;;;;11.70;10.90;;;33.20;61.20;;;;;;5041022;28;20483;-38
2021/08/16 00:43:01;;;;;;;12.43;11.53;;;33.20;61.50;;;;;;5042150;28;20458;-43
2021/08/16 00:45:33;;;;;;;16.97;15.67;;;33.10;60.00;;;;;;5040116;28;20448;-46
2021/08/16 00:48:04;;;;;;;12.27;11.40;;;33.00;59.50;;;;;;5042731;28;20524;-43
2021/08/16 00:50:35;;;;;;;12.27;11.33;;;32.90;60.50;;;;;;5059536;28;20463;-43
2021/08/16 00:53:07;;;;;;;10.60;9.80;;;32.80;60.20;;;;;;5049532;28;20535;-41
2021/08/16 00:55:38;;;;;;;10.07;9.40;;;32.90;59.10;;;;;;5053273;28;20522;-42
2021/08/16 00:58:11;;;;;;;10.43;9.73;;;32.60;58.90;;;;;;5059297;28;20459;-42
2021/08/16 01:00:43;;;;;;;10.67;9.87;;;32.50;58.40;;;;;;5040138;28;20503;-46
2021/08/16 01:03:15;;;;;;;11.53;10.43;;;32.50;58.10;;;;;;5045938;28;20460;-42
2021/08/16 01:05:46;;;;;;;9.93;9.23;;;32.40;58.90;;;;;;5052897;28;20463;-42
2021/08/16 01:08:17;;;;;;;10.23;9.50;;;32.40;57.70;;;;;;5055979;28;20451;-43
2021/08/16 01:10:48;;;;;;;10.60;9.70;;;32.30;57.30;;;;;;5048487;28;20475;-42
2021/08/16 01:13:22;;;;;;;10.60;9.70;;;32.30;55.80;;;;;;5036691;28;20468;-41
2021/08/16 01:16:01;;;;;;;9.43;8.83;;;32.20;55.70;;;;;;5035401;28;20470;-43
2021/08/16 01:18:35;;;;;;;9.77;9.00;;;32.00;56.20;;;;;;5039926;28;20478;-48
2021/08/16 01:21:07;;;;;;;17.87;16.27;;;31.90;57.00;;;;;;5038397;28;20803;-41
2021/08/16 01:23:40;;;;;;;9.30;8.60;;;31.80;57.80;;;;;;5039687;28;20447;-39
2021/08/16 01:26:11;;;;;;;10.40;9.60;;;31.80;57.60;;;;;;5039475;28;20455;-42
2021/08/16 01:28:44;;;;;;;17.90;15.70;;;31.70;58.30;;;;;;5045521;28;20446;-38
2021/08/16 01:31:15;;;;;;;9.70;8.90;;;31.60;59.00;;;;;;5038304;28;20494;-41
2021/08/16 01:33:46;;;;;;;8.73;8.03;;;31.70;58.10;;;;;;5039814;28;20988;-45
2021/08/16 01:36:17;;;;;;;8.10;7.50;;;31.70;58.30;;;;;;5056476;28;20463;-44
2021/08/16 01:38:48;;;;;;;8.10;7.60;;;31.70;58.30;;;;;;5059015;28;20453;-39
2021/08/16 01:41:19;;;;;;;8.63;8.03;;;31.70;57.90;;;;;;5046580;28;20597;-42
2021/08/16 01:43:51;;;;;;;9.63;8.63;;;31.60;58.20;;;;;;5033371;28;20440;-39
2021/08/16 01:46:22;;;;;;;9.30;8.40;;;31.60;57.80;;;;;;5044902;28;20453;-44
2021/08/16 01:48:53;;;;;;;8.57;7.97;;;31.50;58.20;;;;;;5044307;28;20514;-44
2021/08/16 01:51:24;;;;;;;8.67;8.00;;;31.30;59.00;;;;;;5049169;28;20544;-43
2021/08/16 01:53:55;;;;;;;8.10;7.50;;;31.20;57.80;;;;;;5043281;28;20483;-39
2021/08/16 01:56:26;;;;;;;7.53;7.03;;;31.20;57.10;;;;;;5043434;28;20462;-43
2021/08/16 01:58:59;;;;;;;8.53;7.93;;;31.10;56.80;;;;;;5043536;28;20471;-43
2021/08/16 02:01:33;;;;;;;8.40;7.70;;;31.10;56.60;;;;;;5043781;28;20522;-41
2021/08/16 02:04:05;;;;;;;7.90;7.40;;;31.10;56.40;;;;;;5044620;28;20478;-48
2021/08/16 02:06:36;;;;;;;8.73;8.13;;;31.00;57.10;;;;;;5037441;28;20443;-41
2021/08/16 02:09:07;;;;;;;8.73;8.13;;;31.00;58.60;;;;;;5041639;28;20476;-44
2021/08/16 02:11:40;;;;;;;9.30;8.63;;;30.90;59.20;;;;;;5040987;28;20620;-44
2021/08/16 02:14:13;;;;;;;9.57;8.87;;;30.80;60.00;;;;;;5040029;28;20820;-39
2021/08/16 02:16:44;;;;;;;8.63;7.93;;;30.60;61.00;;;;;;5056698;28;20447;-45
2021/08/16 02:19:16;;;;;;;8.63;8.03;;;30.40;61.40;;;;;;5040951;28;20612;-41
2021/08/16 02:21:47;;;;;;;10.10;9.30;;;30.30;63.30;;;;;;5037326;27;20484;-40
2021/08/16 02:24:18;;;;;;;10.13;9.30;;;30.20;62.70;;;;;;5047540;28;20487;-45
2021/08/16 02:26:48;;;;;;;9.70;9.00;;;30.10;64.10;;;;;;5042027;28;20607;-42
2021/08/16 02:29:21;;;;;;;8.60;7.90;;;30.00;65.90;;;;;;5044361;28;20635;-43
2021/08/16 02:31:52;;;;;;;9.23;8.50;;;29.90;64.60;;;;;;5041046;28;20444;-43
2021/08/16 02:34:23;;;;;;;9.10;8.20;;;29.80;63.40;;;;;;5042389;28;20502;-45
2021/08/16 02:36:55;;;;;;;8.07;7.47;;;29.70;64.10;;;;;;5035609;28;20460;-47
2021/08/16 02:39:26;;;;;;;8.87;8.27;;;29.60;64.20;;;;;;5037800;28;20485;-44
2021/08/16 02:41:57;;;;;;;8.60;7.90;;;29.60;64.10;;;;;;5039555;28;20510;-40
2021/08/16 02:44:29;;;;;;;9.43;8.73;;;29.60;65.00;;;;;;5039296;28;20444;-39
2021/08/16 02:47:00;;;;;;;9.30;8.60;;;29.60;64.90;;;;;;5039993;28;20455;-41
2021/08/16 02:49:31;;;;;;;10.20;9.40;;;29.60;65.40;;;;;;5042811;28;20481;-37
2021/08/16 02:52:03;;;;;;;8.40;7.60;;;29.50;64.40;;;;;;5035947;28;20483;-43
2021/08/16 02:54:34;;;;;;;9.30;8.60;;;29.40;64.20;;;;;;5040170;28;20454;-38
2021/08/16 02:57:05;;;;;;;8.97;8.30;;;29.30;64.50;;;;;;5041675;28;20481;-41
2021/08/16 02:59:38;;;;;;;8.60;7.90;;;29.20;64.30;;;;;;5043204;28;20495;-38
2021/08/16 03:02:09;;;;;;;8.53;7.90;;;28.90;65.20;;;;;;5045853;28;20527;-38
2021/08/16 03:04:40;;;;;;;8.67;7.97;;;28.70;65.80;;;;;;5041885;28;20499;-39
2021/08/16 03:07:11;;;;;;;8.87;8.17;;;28.60;66.20;;;;;;5040451;28;20589;-39
2021/08/16 03:09:42;;;;;;;8.07;7.27;;;28.40;66.80;;;;;;5055658;27;20488;-42
2021/08/16 03:12:14;;;;;;;7.47;6.67;;;28.30;65.70;;;;;;5100804;27;20543;-41
2021/08/16 03:14:47;;;;;;;9.80;7.47;;;28.20;63.50;;;;;;5042510;28;20559;-39
2021/08/16 03:17:18;;;;;;;6.33;5.83;;;28.10;67.00;;;;;;5051224;28;20516;-39
2021/08/16 03:19:50;;;;;;;7.77;7.17;;;27.80;67.60;;;;;;5046646;28;20504;-39
2021/08/16 03:22:20;;;;;;;7.37;6.87;;;27.60;69.70;;;;;;5056251;28;20509;-41
2021/08/16 03:24:51;;;;;;;6.80;6.30;;;27.50;69.20;;;;;;5041992;28;20475;-40
2021/08/16 03:27:22;;;;;;;6.77;6.27;;;27.30;70.20;;;;;;5041574;28;20478;-39
2021/08/16 03:29:55;;;;;;;7.53;6.83;;;27.20;70.60;;;;;;5055880;28;20567;-39
2021/08/16 03:32:26;;;;;;;7.40;6.80;;;27.00;70.60;;;;;;5042634;28;20532;-37
2021/08/16 03:34:57;;;;;;;7.70;7.10;;;26.80;70.00;;;;;;5041377;28;20458;-37
2021/08/16 03:37:35;;;;;;;7.10;6.47;;;26.80;68.70;;;;;;5088240;27;20517;-38
2021/08/16 03:40:07;;;;;;;7.40;6.80;;;26.90;68.20;;;;;;5043184;28;20457;-40
2021/08/16 03:42:39;;;;;;;8.10;7.50;;;26.90;69.50;;;;;;5056316;28;20477;-37
2021/08/16 03:45:15;;;;;;;7.20;6.60;;;26.70;69.60;;;;;;5044022;27;20450;-39
2021/08/16 03:47:47;;;;;;;7.87;6.70;;;26.60;68.50;;;;;;5039342;28;20446;-47
2021/08/16 03:50:18;;;;;;;7.57;6.90;;;26.50;68.00;;;;;;5041421;28;20509;-44
2021/08/16 03:52:49;;;;;;;7.97;7.27;;;26.40;68.40;;;;;;5042565;28;20506;-37
2021/08/16 03:55:21;;;;;;;8.67;8.07;;;26.30;70.50;;;;;;5043474;28;20450;-40
2021/08/16 03:57:51;;;;;;;8.10;7.50;;;26.20;68.90;;;;;;5047113;27;20435;-40
2021/08/16 04:00:25;;;;;;;8.00;7.30;;;26.20;69.90;;;;;;5041605;28;21117;-39
2021/08/16 04:02:56;;;;;;;6.87;6.37;;;26.00;70.90;;;;;;5038366;28;20482;-38
2021/08/16 04:05:27;;;;;;;6.50;6.10;;;25.80;73.00;;;;;;5040761;28;20462;-39
2021/08/16 04:07:58;;;;;;;7.90;7.30;;;25.70;72.60;;;;;;5040400;28;20476;-38
2021/08/16 04:10:29;;;;;;;8.40;7.60;;;25.60;73.10;;;;;;5040983;28;20475;-40
2021/08/16 04:13:00;;;;;;;8.10;7.40;;;25.50;73.70;;;;;;5040948;28;20474;-46
2021/08/16 04:15:33;;;;;;;7.33;6.73;;;25.50;71.90;;;;;;5047809;28;20431;-37
2021/08/16 04:18:05;;;;;;;8.07;7.37;;;25.50;70.10;;;;;;5037758;28;20473;-41
2021/08/16 04:20:36;;;;;;;7.63;6.93;;;25.50;70.10;;;;;;5043098;28;20453;-42
2021/08/16 04:23:08;;;;;;;7.17;6.57;;;25.60;70.70;;;;;;5047100;28;20543;-39
2021/08/16 04:25:39;;;;;;;7.27;6.73;;;25.50;69.40;;;;;;5034173;28;20868;-39
2021/08/16 04:28:10;;;;;;;7.50;6.97;;;25.50;70.30;;;;;;5047717;27;20467;-38
2021/08/16 04:30:43;;;;;;;7.60;7.00;;;25.40;70.10;;;;;;5040116;28;20590;-40
2021/08/16 04:33:14;;;;;;;7.67;7.03;;;25.30;71.80;;;;;;5041825;28;20917;-40
2021/08/16 04:35:45;;;;;;;8.67;7.97;;;25.20;73.70;;;;;;5042220;27;20525;-39
2021/08/16 04:38:19;;;;;;;8.40;7.73;;;25.10;72.80;;;;;;5052021;27;20475;-40
2021/08/16 04:40:50;;;;;;;8.77;7.87;;;25.00;73.90;;;;;;5042688;28;20946;-40
2021/08/16 04:43:22;;;;;;;8.23;7.63;;;24.90;74.80;;;;;;5041009;28;20496;-40
2021/08/16 04:45:55;;;;;;;7.67;7.07;;;24.80;77.00;;;;;;5040755;28;20488;-40
2021/08/16 04:48:27;;;;;;;8.10;7.50;;;24.70;75.70;;;;;;5025945;28;20478;-38
2021/08/16 04:50:58;;;;;;;8.57;7.87;;;24.60;76.90;;;;;;5040071;28;20485;-38
2021/08/16 04:53:29;;;;;;;8.57;7.87;;;24.60;78.10;;;;;;5046545;28;20453;-38
2021/08/16 04:56:00;;;;;;;8.50;7.90;;;24.40;77.70;;;;;;5036727;28;20429;-41
2021/08/16 04:58:31;;;;;;;9.60;8.80;;;24.30;79.60;;;;;;5040254;28;20449;-39
2021/08/16 05:01:04;;;;;;;9.00;8.23;;;24.30;79.50;;;;;;5040128;28;20454;-38
2021/08/16 05:03:35;;;;;;;8.87;8.17;;;24.30;79.20;;;;;;5052712;28;20599;-38
2021/08/16 05:06:07;;;;;;;8.53;7.93;;;24.20;80.00;;;;;;5057224;28;20824;-38
2021/08/16 05:08:38;;;;;;;9.73;8.90;;;24.20;80.20;;;;;;5024575;28;20820;-38
2021/08/16 05:11:09;;;;;;;9.73;8.93;;;24.00;81.80;;;;;;5040007;28;20469;-38
2021/08/16 05:13:40;;;;;;;9.63;8.70;;;24.00;80.90;;;;;;5042875;28;20452;-38
2021/08/16 05:16:13;;;;;;;9.10;8.30;;;23.90;82.10;;;;;;5040219;28;20457;-38
2021/08/16 05:18:44;;;;;;;9.47;8.40;;;23.80;82.80;;;;;;5033630;28;21225;-40
2021/08/16 05:21:15;;;;;;;9.47;8.67;;;23.70;83.20;;;;;;5040472;28;20436;-40
2021/08/16 05:23:46;;;;;;;8.83;8.13;;;23.80;84.10;;;;;;5039965;28;20460;-42
2021/08/16 05:26:17;;;;;;;10.10;9.20;;;23.80;84.30;;;;;;5045759;28;20471;-39
2021/08/16 05:28:48;;;;;;;9.60;8.70;;;23.70;85.20;;;;;;5047279;28;20444;-42
2021/08/16 05:31:21;;;;;;;9.60;8.70;;;23.70;86.30;;;;;;5044749;28;20448;-40
2021/08/16 05:33:52;;;;;;;9.23;8.43;;;23.50;87.00;;;;;;5045003;28;20442;-40
2021/08/16 05:36:23;;;;;;;9.90;9.00;;;23.40;88.10;;;;;;5042892;28;20481;-42
2021/08/16 05:38:55;;;;;;;9.67;8.87;;;23.30;89.30;;;;;;5037549;28;20498;-39
2021/08/16 05:41:26;;;;;;;9.80;8.80;;;23.30;90.20;;;;;;5041088;28;20428;-40
2021/08/16 05:43:58;;;;;;;9.70;8.90;;;23.20;90.30;;;;;;5043763;28;20484;-39
2021/08/16 05:46:30;;;;;;;8.93;8.20;;;23.10;91.00;;;;;;5056493;28;20468;-40
2021/08/16 05:49:01;;;;;;;10.23;9.33;;;23.10;91.70;;;;;;5042884;28;20452;-40
2021/08/16 05:51:32;;;;;;;10.90;9.33;;;22.90;92.40;;;;;;5042806;28;20488;-40
2021/08/16 05:54:03;;;;;;;9.57;8.77;;;22.80;93.10;;;;;;5047318;28;20484;-39
2021/08/16 05:56:34;;;;;;;9.67;8.90;;;22.70;93.90;;;;;;5044178;28;20913;-41
2021/08/16 05:59:05;;;;;;;9.47;8.73;;;22.80;94.50;;;;;;5056792;28;20452;-39
2021/08/16 06:01:40;;;;;;;9.57;8.77;;;22.60;95.30;;;;;;5042937;28;20487;-37
2021/08/16 06:04:11;;;;;;;10.10;9.10;;;22.60;96.30;;;;;;5052247;28;20488;-39
2021/08/16 06:06:42;;;;;;;9.83;8.93;;;22.60;96.80;;;;;;5059603;28;20802;-37
2021/08/16 06:09:13;;;;;;;9.60;8.80;;;22.50;97.80;;;;;;5043158;28;20434;-38
2021/08/16 06:11:44;;;;;;;9.80;9.00;;;22.40;98.30;;;;;;5048891;28;20564;-38
2021/08/16 06:14:15;;;;;;;9.33;8.13;;;22.30;99.30;;;;;;5053982;28;20449;-41
2021/08/16 06:16:48;;;;;;;9.73;8.70;;;22.30;99.70;;;;;;5042360;28;20467;-40
2021/08/16 06:19:19;;;;;;;9.40;8.47;;;22.30;99.90;;;;;;5060597;28;20538;-40
2021/08/16 06:21:50;;;;;;;11.30;10.20;;;22.30;99.90;;;;;;5047341;28;20468;-39
2021/08/16 06:24:21;;;;;;;9.27;8.37;;;22.10;99.90;;;;;;5045691;28;20535;-43
2021/08/16 06:26:52;;;;;;;9.10;8.40;;;22.10;99.90;;;;;;5057272;28;20447;-38
2021/08/16 06:29:23;;;;;;;9.27;8.33;;;22.00;99.90;;;;;;5045309;28;20457;-43
2021/08/16 06:31:56;;;;;;;11.03;8.83;;;22.00;99.90;;;;;;5042261;28;20428;-44
2021/08/16 06:34:27;;;;;;;9.50;8.70;;;21.90;99.90;;;;;;5047870;28;20504;-42
2021/08/16 06:36:58;;;;;;;9.63;8.83;;;21.90;99.90;;;;;;5061445;28;20451;-40
2021/08/16 06:39:29;;;;;;;10.33;9.30;;;21.80;99.90;;;;;;5042549;28;20456;-39
2021/08/16 06:42:00;;;;;;;9.07;8.17;;;21.90;99.90;;;;;;5044502;28;20471;-39
2021/08/16 06:44:32;;;;;;;9.00;8.20;;;21.80;99.90;;;;;;5046618;28;20641;-40
2021/08/16 06:47:06;;;;;;;8.70;7.90;;;21.80;99.90;;;;;;5051687;28;20936;-40
2021/08/16 06:49:37;;;;;;;8.53;7.83;;;21.80;99.90;;;;;;5042485;28;20455;-38
2021/08/16 06:52:08;;;;;;;9.30;8.50;;;21.70;99.90;;;;;;5041837;28;20502;-38
2021/08/16 06:54:39;;;;;;;8.13;7.43;;;21.60;99.90;;;;;;5062440;28;20448;-40
2021/08/16 06:57:10;;;;;;;9.17;8.30;;;21.60;99.90;;;;;;5058143;28;20437;-40
2021/08/16 06:59:41;;;;;;;9.70;8.80;;;21.50;99.90;;;;;;5042856;28;20517;-38
2021/08/16 07:02:13;;;;;;;12.10;8.40;;;21.50;99.90;;;;;;5041430;28;20452;-42
2021/08/16 07:04:45;;;;;;;8.90;8.20;;;21.40;99.90;;;;;;5050328;27;20495;-42
2021/08/16 07:07:16;;;;;;;8.70;7.90;;;21.40;99.90;;;;;;5060479;28;20415;-40
2021/08/16 07:09:46;;;;;;;8.77;8.07;;;21.50;99.90;;;;;;5048800;28;20506;-38
2021/08/16 07:12:17;;;;;;;9.17;8.27;;;21.40;99.90;;;;;;5037953;28;20417;-39
2021/08/16 07:14:48;;;;;;;8.63;7.90;;;21.40;99.90;;;;;;5038581;28;20431;-38
2021/08/16 07:17:21;;;;;;;10.10;9.17;;;21.40;99.90;;;;;;5041112;28;20473;-38
2021/08/16 07:19:52;;;;;;;8.70;8.00;;;21.30;99.90;;;;;;5040537;28;20529;-38
2021/08/16 07:22:23;;;;;;;8.70;7.90;;;21.20;99.90;;;;;;5039307;28;20436;-38
2021/08/16 07:24:54;;;;;;;9.60;8.70;;;21.20;99.90;;;;;;5045134;28;20520;-38
2021/08/16 07:27:25;;;;;;;9.13;8.33;;;21.20;99.90;;;;;;5049766;28;20460;-39
2021/08/16 07:29:56;;;;;;;9.90;9.03;;;21.10;99.90;;;;;;5046101;28;20473;-39
2021/08/16 07:32:29;;;;;;;9.40;8.60;;;21.00;99.90;;;;;;5036573;28;20452;-40
2021/08/16 07:35:00;;;;;;;8.97;8.10;;;21.00;99.90;;;;;;5039714;28;20958;-38
2021/08/16 07:37:31;;;;;;;9.07;8.27;;;21.00;99.90;;;;;;5039125;28;20423;-41
2021/08/16 07:40:02;;;;;;;9.53;8.63;;;20.90;99.90;;;;;;5045697;28;20522;-44
2021/08/16 07:42:33;;;;;;;9.50;8.33;;;20.80;99.90;;;;;;5038913;28;20485;-38
2021/08/16 07:45:04;;;;;;;10.23;9.10;;;20.90;99.90;;;;;;5039886;28;20481;-38
2021/08/16 07:47:37;;;;;;;8.90;8.00;;;20.80;99.90;;;;;;5039983;28;20460;-38
2021/08/16 07:50:11;;;;;;;9.20;8.30;;;20.70;99.90;;;;;;5039632;28;20544;-41
2021/08/16 07:52:43;;;;;;;10.13;8.80;;;20.70;99.90;;;;;;5039303;28;20453;-38
2021/08/16 07:55:14;;;;;;;9.30;8.50;;;20.70;99.90;;;;;;5024900;28;20453;-38
2021/08/16 07:57:45;;;;;;;9.30;8.40;;;20.70;99.90;;;;;;5040084;28;20446;-38
2021/08/16 08:00:17;;;;;;;9.10;7.93;;;20.60;99.90;;;;;;5037344;28;20424;-38
2021/08/16 08:02:51;;;;;;;9.40;8.50;;;20.60;99.90;;;;;;5056269;28;20427;-38
2021/08/16 08:05:23;;;;;;;9.47;8.67;;;20.50;99.90;;;;;;5029939;28;20463;-38
2021/08/16 08:07:54;;;;;;;8.57;7.77;;;20.50;99.90;;;;;;5036395;28;20446;-38
2021/08/16 08:10:25;;;;;;;9.70;8.90;;;20.50;99.90;;;;;;5040321;28;20450;-38
2021/08/16 08:13:00;;;;;;;9.43;8.53;;;20.50;99.90;;;;;;5040435;28;20656;-39
2021/08/16 08:15:31;;;;;;;10.07;9.13;;;20.50;99.90;;;;;;5028776;28;20471;-38
2021/08/16 08:18:04;;;;;;;8.20;7.50;;;20.40;99.90;;;;;;4952686;28;2538969;-40
2021/08/16 08:20:35;;;;;;;8.97;8.20;;;20.40;99.90;;;;;;5028263;28;20208;-39
2021/08/16 08:23:08;;;;;;;9.10;8.20;;;20.30;99.90;;;;;;5037518;28;20799;-38
2021/08/16 08:25:41;;;;;;;9.90;8.07;;;20.20;99.90;;;;;;5026216;28;20452;-38
2021/08/16 08:28:15;;;;;;;9.50;8.60;;;20.20;99.90;;;;;;5049133;28;20452;-38
2021/08/16 08:30:46;;;;;;;9.33;8.43;;;20.20;99.90;;;;;;5054736;28;20452;-38
2021/08/16 08:33:19;;;;;;;10.00;9.10;;;20.20;99.90;;;;;;5060181;28;20975;-38
2021/08/16 08:35:51;;;;;;;9.43;8.50;;;20.10;99.90;;;;;;5045070;28;20482;-38
2021/08/16 08:38:22;;;;;;;8.80;8.00;;;20.10;99.90;;;;;;5044440;28;20445;-38
2021/08/16 08:40:55;;;;;;;9.87;8.90;;;20.10;99.90;;;;;;5041118;28;20446;-38
2021/08/16 08:43:27;;;;;;;10.40;9.07;;;20.00;99.90;;;;;;5054031;28;20488;-38
2021/08/16 08:46:00;;;;;;;9.10;8.30;;;20.00;99.90;;;;;;5040712;28;20428;-37
2021/08/16 08:48:34;;;;;;;10.70;9.50;;;19.90;99.90;;;;;;5027082;28;20459;-38
2021/08/16 08:51:05;;;;;;;9.17;8.27;;;20.00;99.90;;;;;;5049238;28;20556;-37
2021/08/16 08:53:36;;;;;;;9.03;8.13;;;19.90;99.90;;;;;;5053584;28;20577;-37
2021/08/16 08:56:09;;;;;;;10.17;9.27;;;19.80;99.90;;;;;;5058089;28;20448;-38
2021/08/16 08:58:40;;;;;;;11.23;8.10;;;19.80;99.90;;;;;;5043382;28;20543;-38
2021/08/16 09:01:11;;;;;;;9.17;8.40;;;19.70;99.90;;;;;;5031774;28;20449;-38
2021/08/16 09:03:51;;;;;;;8.60;7.90;;;19.60;99.90;;;;;;5036300;28;20453;-38
2021/08/16 09:06:32;;;;;;;9.60;8.60;;;19.70;99.90;;;;;;5039229;28;20449;-39
2021/08/16 09:09:03;;;;;;;13.40;8.40;;;19.70;99.90;;;;;;5039347;28;20449;-38
2021/08/16 09:11:35;;;;;;;9.53;8.63;;;19.70;99.90;;;;;;5039408;28;20445;-38
2021/08/16 09:14:07;;;;;;;9.87;8.43;;;19.60;99.90;;;;;;5056726;28;20581;-38
2021/08/16 09:16:40;;;;;;;8.70;7.97;;;19.50;99.90;;;;;;5029471;28;20548;-40
2021/08/16 09:19:18;;;;;;;9.80;8.90;;;19.40;99.90;;;;;;5059821;28;20473;-38
2021/08/16 09:21:55;;;;;;;9.70;8.90;;;19.40;99.90;;;;;;5039808;28;20456;-39
2021/08/16 09:24:27;;;;;;;9.97;8.97;;;19.30;99.90;;;;;;5041750;28;20485;-38
2021/08/16 09:27:04;;;;;;;10.67;9.80;;;19.30;99.90;;;;;;5057704;28;20469;-38
2021/08/16 09:29:36;;;;;;;9.90;9.00;;;19.20;99.90;;;;;;5056221;28;20450;-38
2021/08/16 09:32:08;;;;;;;10.67;9.67;;;19.20;99.90;;;;;;5060350;28;20457;-38
2021/08/16 09:34:49;;;;;;;10.50;9.60;;;19.20;99.90;;;;;;5052230;28;20448;-39
2021/08/16 09:37:24;;;;;;;10.43;8.40;;;19.20;99.90;;;;;;5037694;28;20449;-38
2021/08/16 09:40:03;;;;;;;10.13;9.13;;;19.10;99.90;;;;;;5039959;28;20635;-38
2021/08/16 09:42:45;;;;;;;10.17;9.27;;;19.10;99.90;;;;;;5042837;28;20441;-39
2021/08/16 09:45:29;;;;;;;9.30;8.50;;;19.00;99.90;;;;;;5043852;28;20495;-38
2021/08/16 09:48:01;;;;;;;9.30;8.43;;;18.90;99.90;;;;;;5038102;28;20489;-38
2021/08/16 09:50:41;;;;;;;10.00;8.90;;;18.90;99.90;;;;;;5037228;28;20791;-38
2021/08/16 09:53:15;;;;;;;10.40;9.37;;;18.90;99.90;;;;;;5054156;28;20453;-38
2021/08/16 09:55:48;;;;;;;9.23;8.40;;;18.80;99.90;;;;;;5039660;28;20449;-39
2021/08/16 09:58:21;;;;;;;9.60;8.50;;;18.80;99.90;;;;;;5039825;28;20453;-38
2021/08/16 10:00:54;;;;;;;10.50;8.40;;;18.80;99.90;;;;;;5047702;28;20427;-37
2021/08/16 10:03:27;;;;;;;10.30;8.90;;;18.80;99.90;;;;;;5044064;28;20445;-38
2021/08/16 10:06:00;;;;;;;9.27;8.37;;;18.70;99.90;;;;;;5041667;28;20536;-38
2021/08/16 10:08:36;;;;;;;9.40;8.57;;;18.70;99.90;;;;;;5051698;28;20427;-38
2021/08/16 10:11:08;;;;;;;8.53;7.73;;;18.60;99.90;;;;;;5058027;28;20448;-38
2021/08/16 10:13:40;;;;;;;9.60;7.80;;;18.60;99.90;;;;;;5060623;28;20427;-38
2021/08/16 10:16:16;;;;;;;9.00;8.10;;;18.60;99.90;;;;;;5031303;28;20458;-38
2021/08/16 10:18:51;;;;;;;9.63;8.73;;;18.60;99.90;;;;;;5042268;28;20469;-38
2021/08/16 10:21:25;;;;;;;8.80;8.00;;;18.60;99.90;;;;;;5040139;28;20484;-38
2021/08/16 10:23:57;;;;;;;8.97;8.17;;;18.50;99.90;;;;;;5042204;28;20502;-38
2021/08/16 10:26:29;;;;;;;8.60;7.80;;;18.50;99.90;;;;;;5054455;28;20507;-38
2021/08/16 10:29:01;;;;;;;10.47;9.37;;;18.50;99.90;;;;;;5038767;28;20445;-38
2021/08/16 10:31:34;;;;;;;10.77;9.77;;;18.40;99.90;;;;;;5047239;28;20445;-37
2021/08/16 10:34:06;;;;;;;9.30;8.50;;;18.40;99.90;;;;;;5042840;28;20498;-38
2021/08/16 10:36:38;;;;;;;9.37;8.47;;;18.30;99.90;;;;;;5039915;28;20488;-37
2021/08/16 10:39:09;;;;;;;9.40;8.53;;;18.30;99.90;;;;;;5039235;28;20471;-38
2021/08/16 10:41:42;;;;;;;10.27;8.97;;;18.40;99.90;;;;;;5042170;28;20454;-38
2021/08/16 10:44:14;;;;;;;9.70;8.70;;;18.30;99.90;;;;;;5040159;28;20477;-37
2021/08/16 10:46:48;;;;;;;11.73;10.00;;;18.40;99.90;;;;;;5042150;28;20480;-37
2021/08/16 10:49:33;;;;;;;11.00;9.90;;;18.30;99.90;;;;;;5043741;28;20441;-39
2021/08/16 10:52:07;;;;;;;12.70;10.33;;;18.20;99.90;;;;;;5051903;28;20448;-39
2021/08/16 10:54:38;;;;;;;10.50;9.50;;;18.30;99.90;;;;;;5061094;28;20453;-38
2021/08/16 10:57:13;;;;;;;11.10;10.03;;;18.20;99.90;;;;;;5044558;28;20485;-37
2021/08/16 10:59:45;;;;;;;11.73;10.63;;;18.20;99.90;;;;;;5042931;28;20477;-37
2021/08/16 11:02:16;;;;;;;12.77;11.00;;;18.10;99.90;;;;;;5039488;28;20449;-38
2021/08/16 11:04:48;;;;;;;11.00;9.93;;;18.10;99.90;;;;;;5041764;28;20513;-39
2021/08/16 11:07:24;;;;;;;10.80;9.80;;;18.00;99.90;;;;;;5039682;28;20552;-38
2021/08/16 11:10:00;;;;;;;12.43;11.23;;;18.00;99.90;;;;;;5041478;28;20458;-38
2021/08/16 11:12:35;;;;;;;14.37;11.00;;;18.00;99.90;;;;;;5041659;28;20472;-37
2021/08/16 11:15:07;;;;;;;11.60;10.50;;;18.00;99.90;;;;;;5040670;28;20562;-38
2021/08/16 11:17:39;;;;;;;11.47;10.37;;;17.90;99.90;;;;;;5047412;28;20879;-37
2021/08/16 11:20:15;;;;;;;11.67;10.47;;;17.90;99.90;;;;;;5057811;28;20448;-37
2021/08/16 11:22:55;;;;;;;11.37;10.37;;;17.90;99.90;;;;;;5035886;28;20478;-37
2021/08/16 11:25:26;;;;;;;11.90;10.67;;;17.90;99.90;;;;;;5039517;28;20860;-38
2021/08/16 11:28:02;;;;;;;12.70;11.40;;;17.80;99.90;;;;;;5039221;28;20454;-37
2021/08/16 11:30:33;;;;;;;11.67;10.40;;;17.80;99.90;;;;;;5050809;28;20467;-38
2021/08/16 11:33:04;;;;;;;12.43;10.50;;;17.70;99.90;;;;;;5039739;28;20456;-38
2021/08/16 11:35:35;;;;;;;12.37;11.17;;;17.70;99.90;;;;;;5039499;28;20497;-37
2021/08/16 11:38:15;;;;;;;13.20;11.90;;;17.70;99.90;;;;;;5037325;28;20437;-37
2021/08/16 11:40:46;;;;;;;11.97;10.83;;;17.80;99.90;;;;;;5038009;28;20489;-37
2021/08/16 11:43:26;;;;;;;11.60;10.37;;;17.70;99.90;;;;;;5038036;28;20502;-37
2021/08/16 11:45:57;;;;;;;12.37;11.17;;;17.60;99.90;;;;;;5037563;28;20457;-37
2021/08/16 11:48:28;;;;;;;12.60;11.40;;;17.60;99.90;;;;;;5041653;28;20938;-37
2021/08/16 11:50:59;;;;;;;13.10;11.50;;;17.50;99.90;;;;;;5050980;28;20986;-37
2021/08/16 11:53:42;;;;;;;11.90;10.80;;;17.50;99.90;;;;;;5060364;28;20467;-36
2021/08/16 11:56:14;;;;;;;12.70;11.40;;;17.50;99.90;;;;;;5060988;28;20484;-37
2021/08/16 11:58:46;;;;;;;12.30;11.17;;;17.50;99.90;;;;;;5051159;28;20888;-37
2021/08/16 12:01:17;;;;;;;13.40;12.00;;;17.50;99.90;;;;;;5050648;28;20488;-38
2021/08/16 12:03:48;;;;;;;14.47;11.60;;;17.50;99.90;;;;;;5054510;28;20539;-37
2021/08/16 12:06:20;;;;;;;13.83;12.10;;;17.50;99.90;;;;;;5038987;28;20446;-38
2021/08/16 12:09:04;;;;;;;14.07;11.97;;;17.50;99.90;;;;;;5040792;28;20899;-37
2021/08/16 12:11:35;;;;;;;12.97;11.77;;;17.40;99.90;;;;;;5048825;28;20436;-37
2021/08/16 12:14:07;;;;;;;13.47;12.17;;;17.40;99.90;;;;;;5059995;28;20459;-37
2021/08/16 12:16:40;;;;;;;12.27;11.17;;;17.30;99.90;;;;;;5030427;28;20631;-38
2021/08/16 12:19:18;;;;;;;13.70;11.70;;;17.30;99.90;;;;;;5039789;28;20520;-37
2021/08/16 12:22:01;;;;;;;12.67;11.33;;;17.30;99.90;;;;;;5050488;28;20862;-37
2021/08/16 12:24:34;;;;;;;14.43;12.40;;;17.30;99.90;;;;;;5045624;28;20457;-36
2021/08/16 12:27:07;;;;;;;13.13;11.37;;;17.20;99.90;;;;;;5042484;28;20438;-37
2021/08/16 12:29:42;;;;;;;13.43;12.00;;;17.20;99.90;;;;;;5040421;28;20469;-37
2021/08/16 12:32:21;;;;;;;12.63;11.30;;;17.20;99.90;;;;;;5048932;28;20926;-37
2021/08/16 12:34:53;;;;;;;12.50;11.20;;;17.20;99.90;;;;;;5045485;28;20464;-38
2021/08/16 12:37:25;;;;;;;16.20;12.93;;;17.20;99.90;;;;;;5049484;28;20476;-38
2021/08/16 12:40:12;;;;;;;13.60;12.23;;;17.20;99.90;;;;;;5038799;28;20468;-37
2021/08/16 12:42:46;;;;;;;16.53;12.87;;;17.20;99.90;;;;;;5043911;28;20453;-36
2021/08/16 12:45:17;;;;;;;12.43;11.13;;;17.20;99.90;;;;;;5037800;28;20522;-37
2021/08/16 12:48:00;;;;;;;13.10;11.53;;;17.20;99.90;;;;;;5040150;28;20460;-37
2021/08/16 12:50:32;;;;;;;13.50;12.10;;;17.10;99.90;;;;;;5057487;28;20540;-37
2021/08/16 12:53:04;;;;;;;15.23;12.63;;;17.10;99.90;;;;;;5046842;28;20444;-37
2021/08/16 12:55:37;;;;;;;13.07;11.60;;;17.10;99.90;;;;;;5056823;28;20479;-37
2021/08/16 12:58:07;;;;;;;13.80;12.40;;;17.00;99.90;;;;;;5054451;28;20456;-37
2021/08/16 13:00:38;;;;;;;13.63;12.30;;;17.00;99.90;;;;;;5052550;28;20453;-36
2021/08/16 13:03:14;;;;;;;14.10;12.50;;;16.90;99.90;;;;;;5054993;28;20778;-37
2021/08/16 13:05:45;;;;;;;14.63;13.13;;;16.90;99.90;;;;;;5039323;28;20448;-37